首页
METAR-TAF:

METAR-TAF

机场 :

Ingenika Point, 不列颠哥伦比亚, 加拿大

纬度: 56-48N, 经度: 124-54W, 海拔: 680米

当前天气观测

该预报发布于2小时和48分钟前的14:36 UTC
风速17节,风向,有时为25节阵风
温度 21°C
湿度 73%
气压 1017 hPa
能見度: 24.1公里
多云层高于1500英尺
多云层高于2300英尺
多云层高于3600英尺
多云层高于10000英尺

METAR: CWWU 011436Z 18017G25KT 15SM BKN015 BKN023 BKN036 BKN100 21/16 A3003 RMK SC5SC1SC1AC1 CF ASOCTD AC TR SLP169

时间: 10:24 (17:24 UTC)

预报

该预报发布于5小时和24分钟前的12:00 UTC
预报有效从01日的 12点(UTC)到 02日的 12点(UTC)
风速10节,风向,有时为25节阵风
能見度: 10公里
多云层高于1000英尺
阴天层高于1500英尺
成为
从 01日的 21点(UTC)到 01日的 23点(UTC)
风速15节,风向南转南东,有时为25节阵风
能見度: 10公里
多云层高于1000英尺
阴天层高于1500英尺
小阵雨
短暂存在
从 02日的 04点(UTC)到 02日的 12点(UTC)
风速20节,风向南转南东,有时为30节阵风
能見度: 4.8公里
多云层高于1500英尺
阴天层高于2000英尺
小雨, 轻雾

TAF: CWWU 011200Z 0112/0212 18010G25KT P6SM BKN010 OVC015 BECMG 0121/0123 15015G25KT P6SM -SHRA BKN010 OVC015 TEMPO 0204/0212 15020G30KT 3SM -RA BR BKN015 OVC020 RMK NXT FCST BY 011800Z

超过4000个机场的气象观测和天气预报(METAR&TAF报告)。

可查询的气象台以黄色和红色小点在地图上表示。

将鼠标移到小点上方,可查看气象台名称。

然后点击查看天气观测和预报。

如需切换地图:点击带黑十字的绿色按钮放大地图;点击带横线的绿色按钮缩小地图;或者点击绿色箭头查看邻近地区的地图。


METAR-TAF: